createdAt,value
2023-03-21T00:02:38.932Z,9.10
2023-03-21T00:06:08.484Z,9.00
2023-03-21T00:09:32.170Z,9.00
2023-03-21T00:12:58.485Z,9.00
2023-03-21T00:16:23.948Z,8.90
2023-03-21T00:19:54.531Z,8.90
2023-03-21T00:23:19.496Z,8.90
2023-03-21T00:26:43.013Z,8.90
2023-03-21T00:30:07.943Z,8.90
2023-03-21T00:33:31.665Z,9.00
2023-03-21T00:36:55.612Z,9.00
2023-03-21T00:40:28.045Z,9.00
2023-03-21T00:43:55.317Z,9.00
2023-03-21T00:47:18.961Z,8.90
2023-03-21T00:50:45.356Z,8.90
2023-03-21T00:54:08.965Z,8.80
2023-03-21T00:57:39.281Z,8.80
2023-03-21T01:01:09.372Z,8.80
2023-03-21T01:04:34.263Z,8.70
2023-03-21T01:07:57.849Z,8.60
2023-03-21T01:11:24.696Z,8.60
2023-03-21T01:14:49.757Z,8.60
2023-03-21T01:18:13.483Z,8.60
2023-03-21T01:21:38.406Z,8.60
2023-03-21T01:25:19.163Z,8.60
2023-03-21T01:28:46.634Z,8.60
2023-03-21T01:32:11.603Z,8.60
2023-03-21T01:35:49.136Z,8.70
2023-03-21T01:39:15.517Z,8.70
2023-03-21T01:42:39.610Z,8.70
2023-03-21T01:46:47.794Z,8.70
2023-03-21T01:50:35.055Z,8.70
2023-03-21T01:54:14.739Z,8.80
2023-03-21T01:57:51.895Z,8.90
2023-03-21T02:01:22.688Z,8.90
2023-03-21T02:04:55.808Z,9.00
2023-03-21T02:08:30.506Z,9.00
2023-03-21T02:12:05.092Z,9.00
2023-03-21T02:15:29.553Z,9.10
2023-03-21T02:19:53.990Z,9.10
2023-03-21T02:23:45.555Z,9.10
2023-03-21T02:27:14.055Z,9.10
2023-03-21T02:31:08.867Z,9.10
2023-03-21T02:34:53.745Z,9.00
2023-03-21T02:38:24.787Z,9.00
2023-03-21T02:41:51.645Z,9.00
2023-03-21T02:45:29.808Z,8.90
2023-03-21T02:49:03.519Z,8.80
2023-03-21T02:52:38.645Z,8.80
2023-03-21T02:56:10.582Z,8.80
2023-03-21T02:59:51.600Z,8.70
2023-03-21T03:03:33.018Z,8.70
2023-03-21T03:07:21.581Z,8.70
2023-03-21T03:10:56.297Z,8.70
2023-03-21T03:14:56.477Z,8.70
2023-03-21T03:18:32.081Z,8.70
2023-03-21T03:22:01.665Z,8.70
2023-03-21T03:25:41.908Z,8.60
2023-03-21T03:29:12.052Z,8.60
2023-03-21T03:32:44.733Z,8.60
2023-03-21T03:36:25.031Z,8.50
2023-03-21T03:39:59.103Z,8.50
2023-03-21T03:43:27.560Z,8.60
2023-03-21T03:46:57.273Z,8.60
2023-03-21T03:50:28.718Z,8.60
2023-03-21T03:53:56.579Z,8.70
2023-03-21T03:57:26.063Z,8.70
2023-03-21T04:00:51.147Z,8.80
2023-03-21T04:04:16.959Z,8.80
2023-03-21T04:07:42.563Z,8.80
2023-03-21T04:11:06.868Z,8.90
2023-03-21T04:14:44.059Z,8.90
2023-03-21T04:18:09.328Z,8.90
2023-03-21T04:21:32.936Z,8.90
2023-03-21T04:25:00.540Z,8.80
2023-03-21T04:28:25.595Z,8.80
2023-03-21T04:31:57.655Z,8.80
2023-03-21T04:35:21.920Z,8.80
2023-03-21T04:38:48.404Z,8.80
2023-03-21T04:42:15.613Z,8.90
2023-03-21T04:45:39.226Z,8.90
2023-03-21T04:49:03.360Z,8.90
2023-03-21T04:52:27.041Z,9.00
2023-03-21T04:55:54.132Z,9.00
2023-03-21T04:59:21.338Z,9.00
2023-03-21T05:02:46.090Z,9.10
2023-03-21T05:06:11.046Z,9.10
2023-03-21T05:09:34.707Z,9.20
2023-03-21T05:12:59.560Z,9.20
2023-03-21T05:16:30.339Z,9.30
2023-03-21T05:19:56.389Z,9.30
2023-03-21T05:23:20.053Z,9.30
2023-03-21T05:26:50.094Z,9.30
2023-03-21T05:30:18.350Z,9.30
2023-03-21T05:33:46.876Z,9.30
2023-03-21T05:37:13.667Z,9.30
2023-03-21T05:40:42.736Z,9.30
2023-03-21T05:44:06.606Z,9.40
2023-03-21T05:47:31.924Z,9.40
2023-03-21T05:50:58.548Z,9.50
2023-03-21T05:54:22.325Z,9.50
2023-03-21T05:57:46.979Z,9.50
2023-03-21T06:01:16.309Z,9.50
2023-03-21T06:04:47.476Z,9.50
2023-03-21T06:08:12.883Z,9.60
2023-03-21T06:11:39.696Z,9.60
2023-03-21T06:15:19.838Z,9.60
2023-03-21T06:19:02.333Z,9.70
2023-03-21T06:22:40.895Z,9.80
2023-03-21T06:26:07.112Z,9.90
2023-03-21T06:29:32.125Z,10.00
2023-03-21T06:32:56.014Z,10.10
2023-03-21T06:36:20.358Z,10.10
2023-03-21T06:39:44.301Z,10.20
2023-03-21T06:43:09.571Z,10.30
2023-03-21T06:46:33.497Z,10.40
2023-03-21T06:49:57.633Z,10.50
2023-03-21T06:53:27.201Z,10.50
2023-03-21T06:57:21.891Z,10.50
2023-03-21T07:00:48.471Z,10.50
2023-03-21T07:04:13.048Z,10.50
2023-03-21T07:07:36.907Z,10.50
2023-03-21T07:11:00.596Z,10.50
2023-03-21T07:14:24.668Z,10.60
2023-03-21T07:17:49.863Z,10.60
2023-03-21T07:21:13.670Z,10.70
2023-03-21T07:24:37.602Z,10.70
2023-03-21T07:28:01.692Z,10.70
2023-03-21T07:31:26.707Z,10.70
2023-03-21T07:34:51.613Z,10.60
2023-03-21T07:38:16.823Z,10.70
2023-03-21T07:41:40.870Z,10.70
2023-03-21T07:45:21.869Z,10.70
2023-03-21T07:48:45.612Z,10.90
2023-03-21T07:52:10.780Z,10.80
2023-03-21T07:55:35.080Z,10.70
2023-03-21T07:58:59.301Z,10.60
2023-03-21T08:02:23.130Z,10.50
2023-03-21T08:05:47.226Z,10.60
2023-03-21T08:09:12.425Z,10.60
2023-03-21T08:12:36.036Z,10.60
2023-03-21T08:15:59.594Z,10.60
2023-03-21T08:19:23.515Z,10.60
2023-03-21T08:22:47.202Z,10.70
2023-03-21T08:26:18.415Z,10.70
2023-03-21T08:29:42.358Z,10.50
2023-03-21T08:33:06.013Z,10.60
2023-03-21T08:36:30.406Z,10.60
2023-03-21T08:39:54.068Z,10.40
2023-03-21T08:43:19.218Z,10.50
2023-03-21T08:46:42.898Z,10.60
2023-03-21T08:50:08.783Z,10.60
2023-03-21T08:53:32.541Z,10.60
2023-03-21T08:56:56.588Z,10.60
2023-03-21T09:00:22.093Z,10.50
2023-03-21T09:03:45.872Z,10.50
2023-03-21T09:07:11.175Z,10.40
2023-03-21T09:10:35.049Z,10.40
2023-03-21T09:13:58.562Z,10.40
2023-03-21T09:17:23.797Z,10.30
2023-03-21T09:20:48.176Z,10.20
2023-03-21T09:24:12.637Z,10.20
2023-03-21T09:27:36.937Z,10.20
2023-03-21T09:31:02.637Z,10.10
2023-03-21T09:34:28.314Z,10.10
2023-03-21T09:37:52.492Z,10.30
2023-03-21T09:41:33.414Z,10.30
2023-03-21T09:45:07.593Z,10.30
2023-03-21T09:48:39.633Z,10.40
2023-03-21T09:52:17.041Z,10.60
2023-03-21T09:55:42.604Z,10.90
2023-03-21T09:59:09.176Z,11.10
2023-03-21T10:02:38.538Z,11.00
2023-03-21T10:06:08.341Z,10.80
2023-03-21T10:09:34.788Z,10.50
2023-03-21T10:12:58.555Z,10.50
2023-03-21T10:16:27.832Z,10.60
2023-03-21T10:19:58.030Z,10.40
2023-03-21T10:23:25.763Z,10.50
2023-03-21T10:26:52.302Z,10.70
2023-03-21T10:30:40.525Z,10.90
2023-03-21T10:34:10.704Z,10.90
2023-03-21T10:37:36.365Z,10.80
2023-03-21T10:41:00.607Z,11.00
2023-03-21T10:44:31.071Z,11.20
2023-03-21T10:47:55.440Z,11.10
2023-03-21T10:51:22.691Z,11.10
2023-03-21T10:54:48.363Z,11.30
2023-03-21T10:58:18.740Z,11.40
2023-03-21T11:01:47.166Z,11.40
2023-03-21T11:05:22.485Z,11.30
2023-03-21T11:08:49.390Z,11.30
2023-03-21T11:12:15.668Z,11.50
2023-03-21T11:15:48.019Z,11.70
2023-03-21T11:19:18.819Z,11.70
2023-03-21T11:22:44.992Z,11.80
2023-03-21T11:26:12.221Z,11.60
2023-03-21T11:29:38.893Z,11.40
2023-03-21T11:33:04.623Z,11.50
2023-03-21T11:36:35.091Z,11.40
2023-03-21T11:40:08.920Z,11.20
2023-03-21T11:43:36.084Z,11.20
2023-03-21T11:47:00.886Z,11.20
2023-03-21T11:50:32.530Z,11.20
2023-03-21T11:54:06.691Z,11.20
2023-03-21T11:57:40.724Z,11.10
2023-03-21T12:01:15.744Z,10.90
2023-03-21T12:04:42.175Z,10.90
2023-03-21T12:08:18.426Z,11.00
2023-03-21T12:11:54.537Z,10.80
2023-03-21T12:15:25.584Z,10.60
2023-03-21T12:19:08.447Z,10.60
2023-03-21T12:22:38.014Z,10.60
2023-03-21T12:26:12.257Z,10.70
2023-03-21T12:29:55.031Z,10.70
2023-03-21T12:33:36.406Z,10.90
2023-03-21T12:37:10.977Z,10.80
2023-03-21T12:40:51.765Z,10.90
2023-03-21T12:44:17.411Z,11.00
2023-03-21T12:47:46.538Z,11.20
2023-03-21T12:51:14.560Z,11.20
2023-03-21T12:54:43.282Z,11.10
2023-03-21T12:58:12.281Z,11.10
2023-03-21T13:01:41.809Z,11.20
2023-03-21T13:05:18.990Z,11.10
2023-03-21T13:08:47.381Z,11.10
2023-03-21T13:12:29.687Z,11.10
2023-03-21T13:16:01.619Z,11.20
2023-03-21T13:19:32.777Z,11.40
2023-03-21T13:22:59.480Z,11.30
2023-03-21T13:26:34.958Z,11.30
2023-03-21T13:30:06.463Z,11.40
2023-03-21T13:33:34.577Z,11.60
2023-03-21T13:37:00.661Z,11.70
2023-03-21T13:40:28.540Z,11.90
2023-03-21T13:43:55.459Z,11.90
2023-03-21T13:47:42.760Z,11.80
2023-03-21T13:51:07.561Z,11.90
2023-03-21T13:54:48.512Z,11.90
2023-03-21T13:58:32.901Z,12.00
2023-03-21T14:02:02.630Z,12.20
2023-03-21T14:05:29.034Z,12.00
2023-03-21T14:08:54.088Z,11.80
2023-03-21T14:12:21.338Z,11.70
2023-03-21T14:15:56.701Z,11.70
2023-03-21T14:19:22.048Z,11.70
2023-03-21T14:22:48.550Z,11.90
2023-03-21T14:26:14.530Z,11.90
2023-03-21T14:29:42.109Z,11.90
2023-03-21T14:33:17.854Z,11.90
2023-03-21T14:36:45.721Z,12.00
2023-03-21T14:40:21.413Z,12.10
2023-03-21T14:43:45.136Z,12.10
2023-03-21T14:47:18.057Z,12.10
2023-03-21T14:50:48.975Z,12.20
2023-03-21T14:54:17.567Z,12.00
2023-03-21T14:57:41.480Z,12.00
2023-03-21T15:01:08.865Z,11.90
2023-03-21T15:04:34.052Z,11.80
2023-03-21T15:08:01.957Z,11.80
2023-03-21T15:11:31.912Z,11.80
2023-03-21T15:14:56.567Z,11.80
2023-03-21T15:18:26.786Z,11.70
2023-03-21T15:21:53.468Z,11.80
2023-03-21T15:25:21.906Z,11.80
2023-03-21T15:28:47.793Z,11.80
2023-03-21T15:32:16.805Z,11.90
2023-03-21T15:35:45.896Z,11.90
2023-03-21T15:39:14.325Z,11.90
2023-03-21T15:42:42.257Z,11.90
2023-03-21T15:46:15.042Z,11.90
2023-03-21T15:49:42.179Z,12.00
2023-03-21T15:53:12.994Z,11.90
2023-03-21T15:56:37.453Z,11.70
2023-03-21T16:00:09.664Z,11.60
2023-03-21T16:03:40.479Z,11.70
2023-03-21T16:07:16.029Z,11.70
2023-03-21T16:10:40.414Z,11.60
2023-03-21T16:14:04.594Z,11.60
2023-03-21T16:17:36.591Z,11.60
2023-03-21T16:21:01.015Z,11.50
2023-03-21T16:24:24.843Z,11.40
2023-03-21T16:27:49.501Z,11.40
2023-03-21T16:31:16.159Z,11.30
2023-03-21T16:34:42.813Z,11.20
2023-03-21T16:38:06.396Z,11.20
2023-03-21T16:41:29.992Z,11.30
2023-03-21T16:44:53.546Z,11.20
2023-03-21T16:48:17.899Z,11.30
2023-03-21T16:51:43.012Z,11.30
2023-03-21T16:55:08.600Z,11.20
2023-03-21T16:58:32.696Z,11.20
2023-03-21T17:01:56.638Z,11.20
2023-03-21T17:05:20.661Z,11.20
2023-03-21T17:08:46.076Z,11.20
2023-03-21T17:12:13.612Z,11.10
2023-03-21T17:15:37.548Z,11.20
2023-03-21T17:19:01.881Z,11.10
2023-03-21T17:22:25.844Z,11.10
2023-03-21T17:25:51.053Z,11.10
2023-03-21T17:29:15.659Z,11.10
2023-03-21T17:32:39.283Z,11.00
2023-03-21T17:36:02.992Z,11.00
2023-03-21T17:39:28.769Z,11.00
2023-03-21T17:42:54.622Z,10.90
2023-03-21T17:46:21.035Z,10.90
2023-03-21T17:49:46.469Z,10.80
2023-03-21T17:53:10.245Z,10.80
2023-03-21T17:56:37.471Z,10.90
2023-03-21T18:00:05.190Z,10.90
2023-03-21T18:03:35.795Z,10.90
2023-03-21T18:07:01.110Z,10.90
2023-03-21T18:10:26.522Z,10.90
2023-03-21T18:13:50.200Z,10.90
2023-03-21T18:17:18.420Z,11.00
2023-03-21T18:20:51.597Z,10.90
2023-03-21T18:24:16.702Z,10.90
2023-03-21T18:28:02.151Z,10.90
2023-03-21T18:31:25.274Z,10.90
2023-03-21T18:34:50.514Z,10.90
2023-03-21T18:38:14.203Z,11.00
2023-03-21T18:41:37.940Z,10.90
2023-03-21T18:45:02.151Z,10.90
2023-03-21T18:48:25.872Z,11.00
2023-03-21T18:51:51.729Z,11.00
2023-03-21T18:55:15.850Z,11.00
2023-03-21T18:58:39.613Z,11.00
2023-03-21T19:02:05.111Z,11.00
2023-03-21T19:05:31.536Z,11.00
2023-03-21T19:08:56.626Z,11.00
2023-03-21T19:12:20.295Z,11.00
2023-03-21T19:15:44.010Z,11.00
2023-03-21T19:19:09.391Z,11.10
2023-03-21T19:22:33.081Z,11.10
2023-03-21T19:25:58.340Z,11.10
2023-03-21T19:29:22.123Z,11.10
2023-03-21T19:32:45.988Z,11.10
2023-03-21T19:36:18.376Z,11.10
2023-03-21T19:39:45.912Z,11.10
2023-03-21T19:43:31.708Z,11.00
2023-03-21T19:46:54.827Z,11.00
2023-03-21T19:54:06.220Z,10.80
2023-03-21T19:57:29.822Z,10.80
2023-03-21T20:00:54.892Z,10.70
2023-03-21T20:04:19.073Z,10.70
2023-03-21T20:07:42.830Z,10.60
2023-03-21T20:11:07.140Z,10.60
2023-03-21T20:14:30.712Z,10.60
2023-03-21T20:17:56.050Z,10.50
2023-03-21T20:21:25.050Z,10.50
2023-03-21T20:24:49.607Z,10.40
2023-03-21T20:28:17.276Z,10.40
2023-03-21T20:31:47.756Z,10.40
2023-03-21T20:35:21.126Z,10.40
2023-03-21T20:38:51.938Z,10.40
2023-03-21T20:42:15.614Z,10.50
2023-03-21T20:45:39.267Z,10.50
2023-03-21T20:49:05.694Z,10.40
2023-03-21T20:56:14.384Z,10.30
2023-03-21T20:59:38.411Z,10.30
2023-03-21T21:03:02.093Z,10.30
2023-03-21T21:06:25.744Z,10.30
2023-03-21T21:09:51.283Z,10.40
2023-03-21T21:13:14.941Z,10.40
2023-03-21T21:16:38.628Z,10.40
2023-03-21T21:20:12.188Z,10.40
2023-03-21T21:23:38.294Z,10.50
2023-03-21T21:27:03.310Z,10.40
2023-03-21T21:30:29.218Z,10.50
2023-03-21T21:33:54.159Z,10.50
2023-03-21T21:37:17.962Z,10.60
2023-03-21T21:40:41.705Z,10.50
2023-03-21T21:44:07.287Z,10.50
2023-03-21T21:47:31.151Z,10.50
2023-03-21T21:50:55.076Z,10.40
2023-03-21T21:54:19.077Z,10.40
2023-03-21T21:57:42.899Z,10.40
2023-03-21T22:01:10.119Z,10.30
2023-03-21T22:04:34.678Z,10.30
2023-03-21T22:07:58.580Z,10.30
2023-03-21T22:11:22.348Z,10.30
2023-03-21T22:14:46.127Z,10.30
2023-03-21T22:18:11.559Z,10.40
2023-03-21T22:21:35.338Z,10.40
2023-03-21T22:24:59.038Z,10.40
2023-03-21T22:28:25.572Z,10.40
2023-03-21T22:31:49.592Z,10.30
2023-03-21T22:35:15.275Z,10.30
2023-03-21T22:38:39.143Z,10.30
2023-03-21T22:42:04.510Z,10.30
2023-03-21T22:45:28.165Z,10.30
2023-03-21T22:48:51.819Z,10.30
2023-03-21T22:52:16.743Z,10.20
2023-03-21T22:55:41.139Z,10.30
2023-03-21T22:59:04.792Z,10.20
2023-03-21T23:02:29.066Z,10.30
2023-03-21T23:05:55.668Z,10.30
2023-03-21T23:09:21.686Z,10.30
2023-03-21T23:12:45.317Z,10.40
2023-03-21T23:16:10.074Z,10.40
2023-03-21T23:19:33.749Z,10.40
2023-03-21T23:22:58.502Z,10.40
2023-03-21T23:26:24.609Z,10.40
2023-03-21T23:29:48.931Z,10.40
2023-03-21T23:33:12.544Z,10.40
2023-03-21T23:36:36.610Z,10.40
2023-03-21T23:40:00.441Z,10.40
2023-03-21T23:43:25.384Z,10.40
2023-03-21T23:46:49.080Z,10.40
2023-03-21T23:50:13.001Z,10.50
2023-03-21T23:53:37.437Z,10.60
2023-03-21T23:57:01.391Z,10.60
